sensor_id;sensor_type;location;lat;lon;timestamp;temperature;humidity
11609;DHT22;5860;52.018;8.536;2023-06-24T00:00:33;16.10;99.90
11609;DHT22;5860;52.018;8.536;2023-06-24T00:03:01;16.10;99.90
11609;DHT22;5860;52.018;8.536;2023-06-24T00:05:29;16.00;99.90
11609;DHT22;5860;52.018;8.536;2023-06-24T00:07:58;16.00;99.90
11609;DHT22;5860;52.018;8.536;2023-06-24T00:10:29;15.90;99.90
11609;DHT22;5860;52.018;8.536;2023-06-24T00:12:56;15.90;99.90
11609;DHT22;5860;52.018;8.536;2023-06-24T00:15:22;15.90;99.90
11609;DHT22;5860;52.018;8.536;2023-06-24T00:17:50;15.80;99.90
11609;DHT22;5860;52.018;8.536;2023-06-24T00:20:18;16.00;99.90
11609;DHT22;5860;52.018;8.536;2023-06-24T00:22:46;16.10;99.90
11609;DHT22;5860;52.018;8.536;2023-06-24T00:25:15;16.00;99.90
11609;DHT22;5860;52.018;8.536;2023-06-24T00:27:42;16.10;99.90
11609;DHT22;5860;52.018;8.536;2023-06-24T00:30:10;16.00;99.90
11609;DHT22;5860;52.018;8.536;2023-06-24T00:32:37;16.00;99.90
11609;DHT22;5860;52.018;8.536;2023-06-24T00:35:04;16.00;99.90
11609;DHT22;5860;52.018;8.536;2023-06-24T00:37:31;16.10;99.90
11609;DHT22;5860;52.018;8.536;2023-06-24T00:39:58;16.00;99.90
11609;DHT22;5860;52.018;8.536;2023-06-24T00:42:25;15.90;99.90
11609;DHT22;5860;52.018;8.536;2023-06-24T00:44:52;15.90;99.90
11609;DHT22;5860;52.018;8.536;2023-06-24T00:47:19;15.90;99.90
11609;DHT22;5860;52.018;8.536;2023-06-24T00:49:46;15.90;99.90
11609;DHT22;5860;52.018;8.536;2023-06-24T00:52:13;15.80;99.90
11609;DHT22;5860;52.018;8.536;2023-06-24T00:54:45;15.70;99.90
11609;DHT22;5860;52.018;8.536;2023-06-24T00:57:12;15.60;99.90
11609;DHT22;5860;52.018;8.536;2023-06-24T00:59:40;15.50;99.90
11609;DHT22;5860;52.018;8.536;2023-06-24T01:02:12;15.40;99.90
11609;DHT22;5860;52.018;8.536;2023-06-24T01:04:39;15.40;99.90
11609;DHT22;5860;52.018;8.536;2023-06-24T01:07:06;15.30;99.90
11609;DHT22;5860;52.018;8.536;2023-06-24T01:09:34;15.40;99.90
11609;DHT22;5860;52.018;8.536;2023-06-24T01:12:01;15.40;99.90
11609;DHT22;5860;52.018;8.536;2023-06-24T01:14:28;15.30;99.90
11609;DHT22;5860;52.018;8.536;2023-06-24T01:17:11;15.30;99.90
11609;DHT22;5860;52.018;8.536;2023-06-24T01:20:07;15.20;99.90
11609;DHT22;5860;52.018;8.536;2023-06-24T01:36:28;15.30;99.90
11609;DHT22;5860;52.018;8.536;2023-06-24T01:39:01;15.40;99.90
11609;DHT22;5860;52.018;8.536;2023-06-24T01:41:34;15.30;99.90
11609;DHT22;5860;52.018;8.536;2023-06-24T01:44:04;15.40;99.90
11609;DHT22;5860;52.018;8.536;2023-06-24T01:46:31;15.40;99.90
11609;DHT22;5860;52.018;8.536;2023-06-24T01:49:01;15.40;99.90
11609;DHT22;5860;52.018;8.536;2023-06-24T01:51:31;15.30;99.90
11609;DHT22;5860;52.018;8.536;2023-06-24T01:54:02;15.20;99.90
11609;DHT22;5860;52.018;8.536;2023-06-24T01:56:30;15.20;99.90
11609;DHT22;5860;52.018;8.536;2023-06-24T01:59:01;15.10;99.90
11609;DHT22;5860;52.018;8.536;2023-06-24T02:01:29;15.00;99.90
11609;DHT22;5860;52.018;8.536;2023-06-24T02:04:00;15.20;99.90
11609;DHT22;5860;52.018;8.536;2023-06-24T02:06:29;15.10;99.90
11609;DHT22;5860;52.018;8.536;2023-06-24T02:08:57;15.10;99.90
11609;DHT22;5860;52.018;8.536;2023-06-24T02:11:26;15.10;99.90
11609;DHT22;5860;52.018;8.536;2023-06-24T02:13:54;15.10;99.90
11609;DHT22;5860;52.018;8.536;2023-06-24T02:16:22;15.10;99.90
11609;DHT22;5860;52.018;8.536;2023-06-24T02:18:49;15.10;99.90
11609;DHT22;5860;52.018;8.536;2023-06-24T02:21:17;15.00;99.90
11609;DHT22;5860;52.018;8.536;2023-06-24T02:23:47;15.00;99.90
11609;DHT22;5860;52.018;8.536;2023-06-24T02:26:15;15.10;99.90
11609;DHT22;5860;52.018;8.536;2023-06-24T02:28:44;15.10;99.90
11609;DHT22;5860;52.018;8.536;2023-06-24T02:31:13;15.10;99.90
11609;DHT22;5860;52.018;8.536;2023-06-24T02:33:41;15.10;99.90
11609;DHT22;5860;52.018;8.536;2023-06-24T02:36:08;15.10;99.90
11609;DHT22;5860;52.018;8.536;2023-06-24T02:38:36;15.20;99.90
11609;DHT22;5860;52.018;8.536;2023-06-24T02:41:03;15.10;99.90
11609;DHT22;5860;52.018;8.536;2023-06-24T02:43:32;15.10;99.90
11609;DHT22;5860;52.018;8.536;2023-06-24T02:46:01;15.00;99.90
11609;DHT22;5860;52.018;8.536;2023-06-24T02:48:31;15.00;99.90
11609;DHT22;5860;52.018;8.536;2023-06-24T02:50:59;15.00;99.90
11609;DHT22;5860;52.018;8.536;2023-06-24T02:53:27;15.10;99.90
11609;DHT22;5860;52.018;8.536;2023-06-24T02:55:55;15.10;99.90
11609;DHT22;5860;52.018;8.536;2023-06-24T02:58:24;15.10;99.90
11609;DHT22;5860;52.018;8.536;2023-06-24T03:01:01;15.10;99.90
11609;DHT22;5860;52.018;8.536;2023-06-24T03:03:34;15.10;99.90
11609;DHT22;5860;52.018;8.536;2023-06-24T03:06:02;15.10;99.90
11609;DHT22;5860;52.018;8.536;2023-06-24T03:08:29;15.10;99.90
11609;DHT22;5860;52.018;8.536;2023-06-24T03:10:57;15.10;99.90
11609;DHT22;5860;52.018;8.536;2023-06-24T03:13:24;15.20;99.90
11609;DHT22;5860;52.018;8.536;2023-06-24T03:15:51;15.30;99.90
11609;DHT22;5860;52.018;8.536;2023-06-24T03:18:19;15.40;99.90
11609;DHT22;5860;52.018;8.536;2023-06-24T03:20:47;15.40;99.90
11609;DHT22;5860;52.018;8.536;2023-06-24T03:23:13;15.40;99.90
11609;DHT22;5860;52.018;8.536;2023-06-24T03:25:40;15.40;99.90
11609;DHT22;5860;52.018;8.536;2023-06-24T03:28:08;15.40;99.90
11609;DHT22;5860;52.018;8.536;2023-06-24T03:33:02;15.40;99.90
11609;DHT22;5860;52.018;8.536;2023-06-24T03:35:29;15.40;99.90
11609;DHT22;5860;52.018;8.536;2023-06-24T03:37:59;15.50;99.90
11609;DHT22;5860;52.018;8.536;2023-06-24T03:40:26;15.50;99.90
11609;DHT22;5860;52.018;8.536;2023-06-24T03:42:53;15.50;99.90
11609;DHT22;5860;52.018;8.536;2023-06-24T03:45:20;15.60;99.90
11609;DHT22;5860;52.018;8.536;2023-06-24T03:47:47;15.70;99.90
11609;DHT22;5860;52.018;8.536;2023-06-24T03:50:14;15.70;99.90
11609;DHT22;5860;52.018;8.536;2023-06-24T03:52:41;15.60;99.90
11609;DHT22;5860;52.018;8.536;2023-06-24T03:55:11;15.60;99.90
11609;DHT22;5860;52.018;8.536;2023-06-24T03:57:38;15.60;99.90
11609;DHT22;5860;52.018;8.536;2023-06-24T04:00:06;17.10;99.90
11609;DHT22;5860;52.018;8.536;2023-06-24T04:02:43;18.00;99.90
11609;DHT22;5860;52.018;8.536;2023-06-24T04:05:12;18.60;99.90
11609;DHT22;5860;52.018;8.536;2023-06-24T04:07:39;19.20;99.90
11609;DHT22;5860;52.018;8.536;2023-06-24T04:10:08;20.10;99.90
11609;DHT22;5860;52.018;8.536;2023-06-24T04:12:35;20.20;99.90
11609;DHT22;5860;52.018;8.536;2023-06-24T04:15:03;19.60;99.90
11609;DHT22;5860;52.018;8.536;2023-06-24T04:17:31;20.70;99.90
11609;DHT22;5860;52.018;8.536;2023-06-24T04:19:58;22.10;99.90
11609;DHT22;5860;52.018;8.536;2023-06-24T04:22:25;22.30;99.90
11609;DHT22;5860;52.018;8.536;2023-06-24T04:24:54;21.90;99.90
11609;DHT22;5860;52.018;8.536;2023-06-24T04:27:21;22.40;99.90
11609;DHT22;5860;52.018;8.536;2023-06-24T04:29:48;23.30;99.90
11609;DHT22;5860;52.018;8.536;2023-06-24T04:32:15;24.60;99.90
11609;DHT22;5860;52.018;8.536;2023-06-24T04:34:42;23.80;99.90
11609;DHT22;5860;52.018;8.536;2023-06-24T04:37:09;24.00;99.90
11609;DHT22;5860;52.018;8.536;2023-06-24T04:39:36;24.30;99.90
11609;DHT22;5860;52.018;8.536;2023-06-24T04:42:03;25.70;99.90
11609;DHT22;5860;52.018;8.536;2023-06-24T04:44:30;25.80;99.90
11609;DHT22;5860;52.018;8.536;2023-06-24T04:46:57;25.40;99.90
11609;DHT22;5860;52.018;8.536;2023-06-24T04:49:24;25.60;99.90
11609;DHT22;5860;52.018;8.536;2023-06-24T04:51:51;25.30;99.90
11609;DHT22;5860;52.018;8.536;2023-06-24T04:54:18;24.20;99.90
11609;DHT22;5860;52.018;8.536;2023-06-24T04:56:45;23.30;99.90
11609;DHT22;5860;52.018;8.536;2023-06-24T04:59:15;22.80;99.90
11609;DHT22;5860;52.018;8.536;2023-06-24T05:01:42;22.90;99.90
11609;DHT22;5860;52.018;8.536;2023-06-24T05:04:09;22.30;99.90
11609;DHT22;5860;52.018;8.536;2023-06-24T05:06:36;24.00;99.90
11609;DHT22;5860;52.018;8.536;2023-06-24T05:09:03;25.40;99.90
11609;DHT22;5860;52.018;8.536;2023-06-24T05:11:30;25.90;99.90
11609;DHT22;5860;52.018;8.536;2023-06-24T05:13:57;24.80;99.90
11609;DHT22;5860;52.018;8.536;2023-06-24T05:16:24;23.90;99.90
11609;DHT22;5860;52.018;8.536;2023-06-24T05:18:51;24.70;99.90
11609;DHT22;5860;52.018;8.536;2023-06-24T05:21:18;25.80;99.90
11609;DHT22;5860;52.018;8.536;2023-06-24T05:23:45;27.60;99.90
11609;DHT22;5860;52.018;8.536;2023-06-24T05:26:12;26.60;99.90
11609;DHT22;5860;52.018;8.536;2023-06-24T05:28:39;27.80;99.90
11609;DHT22;5860;52.018;8.536;2023-06-24T05:31:05;27.20;99.90
11609;DHT22;5860;52.018;8.536;2023-06-24T05:33:32;25.50;99.90
11609;DHT22;5860;52.018;8.536;2023-06-24T05:35:59;26.20;99.90
11609;DHT22;5860;52.018;8.536;2023-06-24T05:38:26;28.70;99.90
11609;DHT22;5860;52.018;8.536;2023-06-24T05:40:53;28.20;99.90
11609;DHT22;5860;52.018;8.536;2023-06-24T05:43:20;27.20;99.90
11609;DHT22;5860;52.018;8.536;2023-06-24T05:45:46;27.80;99.90
11609;DHT22;5860;52.018;8.536;2023-06-24T05:48:13;28.70;99.90
11609;DHT22;5860;52.018;8.536;2023-06-24T05:50:41;29.00;99.90
11609;DHT22;5860;52.018;8.536;2023-06-24T05:53:07;25.90;99.90
11609;DHT22;5860;52.018;8.536;2023-06-24T05:55:34;28.00;99.90
11609;DHT22;5860;52.018;8.536;2023-06-24T05:58:02;28.10;99.90
11609;DHT22;5860;52.018;8.536;2023-06-24T06:00:29;29.00;99.90
11609;DHT22;5860;52.018;8.536;2023-06-24T06:02:55;27.40;99.90
11609;DHT22;5860;52.018;8.536;2023-06-24T06:05:23;27.30;99.90
11609;DHT22;5860;52.018;8.536;2023-06-24T06:07:50;27.40;99.90
11609;DHT22;5860;52.018;8.536;2023-06-24T06:10:17;26.30;99.90
11609;DHT22;5860;52.018;8.536;2023-06-24T06:12:44;27.30;99.90
11609;DHT22;5860;52.018;8.536;2023-06-24T06:15:11;27.00;99.90
11609;DHT22;5860;52.018;8.536;2023-06-24T06:17:38;27.90;99.90
11609;DHT22;5860;52.018;8.536;2023-06-24T06:20:06;29.70;99.90
11609;DHT22;5860;52.018;8.536;2023-06-24T06:22:33;29.20;99.90
11609;DHT22;5860;52.018;8.536;2023-06-24T06:25:05;30.50;99.90
11609;DHT22;5860;52.018;8.536;2023-06-24T06:27:32;30.40;99.90
11609;DHT22;5860;52.018;8.536;2023-06-24T06:29:59;28.90;99.90
11609;DHT22;5860;52.018;8.536;2023-06-24T06:32:26;28.30;99.90
11609;DHT22;5860;52.018;8.536;2023-06-24T06:34:57;27.90;99.90
11609;DHT22;5860;52.018;8.536;2023-06-24T06:37:24;28.10;99.90
11609;DHT22;5860;52.018;8.536;2023-06-24T06:39:50;26.40;99.90
11609;DHT22;5860;52.018;8.536;2023-06-24T06:42:17;28.10;99.90
11609;DHT22;5860;52.018;8.536;2023-06-24T06:44:44;30.00;99.90
11609;DHT22;5860;52.018;8.536;2023-06-24T06:47:11;30.70;99.90
11609;DHT22;5860;52.018;8.536;2023-06-24T06:49:38;30.10;99.90
11609;DHT22;5860;52.018;8.536;2023-06-24T06:52:05;29.50;99.90
11609;DHT22;5860;52.018;8.536;2023-06-24T06:54:32;28.00;99.90
11609;DHT22;5860;52.018;8.536;2023-06-24T06:57:03;28.90;99.90
11609;DHT22;5860;52.018;8.536;2023-06-24T06:59:33;28.50;99.90
11609;DHT22;5860;52.018;8.536;2023-06-24T07:02:00;27.80;99.90
11609;DHT22;5860;52.018;8.536;2023-06-24T07:04:27;29.20;99.90
11609;DHT22;5860;52.018;8.536;2023-06-24T07:06:54;30.90;99.90
11609;DHT22;5860;52.018;8.536;2023-06-24T07:09:21;29.90;99.90
11609;DHT22;5860;52.018;8.536;2023-06-24T07:11:47;30.10;99.90
11609;DHT22;5860;52.018;8.536;2023-06-24T07:14:14;29.80;99.90
11609;DHT22;5860;52.018;8.536;2023-06-24T07:16:41;29.00;99.90
11609;DHT22;5860;52.018;8.536;2023-06-24T07:19:08;28.20;99.90
11609;DHT22;5860;52.018;8.536;2023-06-24T07:21:35;29.80;99.90
11609;DHT22;5860;52.018;8.536;2023-06-24T07:24:02;29.10;99.90
11609;DHT22;5860;52.018;8.536;2023-06-24T07:26:29;28.40;99.90
11609;DHT22;5860;52.018;8.536;2023-06-24T07:28:57;28.50;99.90
11609;DHT22;5860;52.018;8.536;2023-06-24T07:31:35;28.90;99.90
11609;DHT22;5860;52.018;8.536;2023-06-24T07:34:04;30.00;99.90
11609;DHT22;5860;52.018;8.536;2023-06-24T07:36:31;30.40;99.90
11609;DHT22;5860;52.018;8.536;2023-06-24T07:38:58;29.30;99.90
11609;DHT22;5860;52.018;8.536;2023-06-24T07:41:25;29.50;99.90
11609;DHT22;5860;52.018;8.536;2023-06-24T07:43:52;28.90;99.90
11609;DHT22;5860;52.018;8.536;2023-06-24T07:46:18;29.80;99.90
11609;DHT22;5860;52.018;8.536;2023-06-24T07:48:45;29.10;99.90
11609;DHT22;5860;52.018;8.536;2023-06-24T07:51:12;27.90;99.90
11609;DHT22;5860;52.018;8.536;2023-06-24T07:53:39;28.20;99.90
11609;DHT22;5860;52.018;8.536;2023-06-24T07:56:06;28.10;99.90
11609;DHT22;5860;52.018;8.536;2023-06-24T07:58:34;28.80;99.90
11609;DHT22;5860;52.018;8.536;2023-06-24T08:01:01;29.50;99.90
11609;DHT22;5860;52.018;8.536;2023-06-24T08:03:28;29.30;99.90
11609;DHT22;5860;52.018;8.536;2023-06-24T08:05:55;29.30;99.90
11609;DHT22;5860;52.018;8.536;2023-06-24T08:08:23;28.70;99.90
11609;DHT22;5860;52.018;8.536;2023-06-24T08:10:50;28.80;99.90
11609;DHT22;5860;52.018;8.536;2023-06-24T08:13:17;27.30;99.90
11609;DHT22;5860;52.018;8.536;2023-06-24T08:15:44;26.60;99.90
11609;DHT22;5860;52.018;8.536;2023-06-24T08:18:11;26.40;99.90
11609;DHT22;5860;52.018;8.536;2023-06-24T08:20:38;27.60;99.90
11609;DHT22;5860;52.018;8.536;2023-06-24T08:23:05;27.10;99.90
11609;DHT22;5860;52.018;8.536;2023-06-24T08:25:32;27.40;99.90
11609;DHT22;5860;52.018;8.536;2023-06-24T08:27:59;27.60;99.90
11609;DHT22;5860;52.018;8.536;2023-06-24T08:30:26;27.20;99.90
11609;DHT22;5860;52.018;8.536;2023-06-24T08:32:53;27.50;99.90
11609;DHT22;5860;52.018;8.536;2023-06-24T08:35:20;28.20;99.90
11609;DHT22;5860;52.018;8.536;2023-06-24T08:37:47;28.60;99.90
11609;DHT22;5860;52.018;8.536;2023-06-24T08:40:14;28.50;99.90
11609;DHT22;5860;52.018;8.536;2023-06-24T08:42:40;29.60;99.90
11609;DHT22;5860;52.018;8.536;2023-06-24T08:45:08;29.10;99.90
11609;DHT22;5860;52.018;8.536;2023-06-24T08:47:35;29.20;99.90
11609;DHT22;5860;52.018;8.536;2023-06-24T08:50:07;28.30;99.90
11609;DHT22;5860;52.018;8.536;2023-06-24T08:52:36;28.70;99.90
11609;DHT22;5860;52.018;8.536;2023-06-24T08:55:06;29.00;99.90
11609;DHT22;5860;52.018;8.536;2023-06-24T08:57:33;28.80;99.90
11609;DHT22;5860;52.018;8.536;2023-06-24T09:00:00;29.00;99.90
11609;DHT22;5860;52.018;8.536;2023-06-24T09:02:28;28.20;99.90
11609;DHT22;5860;52.018;8.536;2023-06-24T09:04:55;28.80;99.90
11609;DHT22;5860;52.018;8.536;2023-06-24T09:07:28;27.20;99.90
11609;DHT22;5860;52.018;8.536;2023-06-24T09:09:55;28.70;99.90
11609;DHT22;5860;52.018;8.536;2023-06-24T09:12:24;28.30;99.90
11609;DHT22;5860;52.018;8.536;2023-06-24T09:14:52;27.70;99.90
11609;DHT22;5860;52.018;8.536;2023-06-24T09:17:19;27.90;99.90
11609;DHT22;5860;52.018;8.536;2023-06-24T09:19:50;27.70;99.90
11609;DHT22;5860;52.018;8.536;2023-06-24T09:22:17;28.60;99.90
11609;DHT22;5860;52.018;8.536;2023-06-24T09:24:46;28.10;99.90
11609;DHT22;5860;52.018;8.536;2023-06-24T09:27:15;28.30;99.90
11609;DHT22;5860;52.018;8.536;2023-06-24T09:29:43;28.40;99.90
11609;DHT22;5860;52.018;8.536;2023-06-24T09:32:10;28.50;99.90
11609;DHT22;5860;52.018;8.536;2023-06-24T09:34:38;28.80;99.90
11609;DHT22;5860;52.018;8.536;2023-06-24T09:37:05;28.00;99.90
11609;DHT22;5860;52.018;8.536;2023-06-24T09:39:39;27.60;99.90
11609;DHT22;5860;52.018;8.536;2023-06-24T09:42:07;28.20;99.90
11609;DHT22;5860;52.018;8.536;2023-06-24T09:44:34;28.20;99.90
11609;DHT22;5860;52.018;8.536;2023-06-24T09:47:01;28.40;99.90
11609;DHT22;5860;52.018;8.536;2023-06-24T09:49:29;28.40;99.90
11609;DHT22;5860;52.018;8.536;2023-06-24T09:51:57;28.80;99.90
11609;DHT22;5860;52.018;8.536;2023-06-24T09:54:26;29.10;99.90
11609;DHT22;5860;52.018;8.536;2023-06-24T09:57:01;28.40;99.90
11609;DHT22;5860;52.018;8.536;2023-06-24T09:59:30;29.30;99.90
11609;DHT22;5860;52.018;8.536;2023-06-24T10:01:58;28.90;99.90
11609;DHT22;5860;52.018;8.536;2023-06-24T10:04:27;28.60;99.90
11609;DHT22;5860;52.018;8.536;2023-06-24T10:06:55;27.30;99.90
11609;DHT22;5860;52.018;8.536;2023-06-24T10:09:22;27.60;99.90
11609;DHT22;5860;52.018;8.536;2023-06-24T10:11:49;27.70;99.90
11609;DHT22;5860;52.018;8.536;2023-06-24T10:14:16;28.60;99.90
11609;DHT22;5860;52.018;8.536;2023-06-24T10:16:44;28.60;99.90
11609;DHT22;5860;52.018;8.536;2023-06-24T10:19:19;28.80;99.90
11609;DHT22;5860;52.018;8.536;2023-06-24T10:21:53;28.40;99.90
11609;DHT22;5860;52.018;8.536;2023-06-24T10:24:31;27.40;99.90
11609;DHT22;5860;52.018;8.536;2023-06-24T10:27:03;27.80;99.90
11609;DHT22;5860;52.018;8.536;2023-06-24T10:29:39;28.10;99.90
11609;DHT22;5860;52.018;8.536;2023-06-24T10:32:07;28.50;99.90
11609;DHT22;5860;52.018;8.536;2023-06-24T10:44:51;28.40;99.90
11609;DHT22;5860;52.018;8.536;2023-06-24T10:47:19;28.10;99.90
11609;DHT22;5860;52.018;8.536;2023-06-24T10:49:46;28.30;99.90
11609;DHT22;5860;52.018;8.536;2023-06-24T10:52:13;28.40;99.90
11609;DHT22;5860;52.018;8.536;2023-06-24T10:54:41;28.90;99.90
11609;DHT22;5860;52.018;8.536;2023-06-24T10:57:09;28.60;99.90
11609;DHT22;5860;52.018;8.536;2023-06-24T11:02:15;28.50;99.90
11609;DHT22;5860;52.018;8.536;2023-06-24T11:04:53;27.00;99.90
11609;DHT22;5860;52.018;8.536;2023-06-24T11:07:25;27.50;99.90
11609;DHT22;5860;52.018;8.536;2023-06-24T11:09:54;27.40;99.90
11609;DHT22;5860;52.018;8.536;2023-06-24T11:12:26;27.70;99.90
11609;DHT22;5860;52.018;8.536;2023-06-24T11:14:57;27.40;99.90
11609;DHT22;5860;52.018;8.536;2023-06-24T11:17:25;27.60;99.90
11609;DHT22;5860;52.018;8.536;2023-06-24T11:19:53;27.70;99.90
11609;DHT22;5860;52.018;8.536;2023-06-24T11:22:21;27.40;99.90
11609;DHT22;5860;52.018;8.536;2023-06-24T11:24:49;26.70;99.90
11609;DHT22;5860;52.018;8.536;2023-06-24T11:27:16;26.70;99.90
11609;DHT22;5860;52.018;8.536;2023-06-24T11:29:44;26.70;99.90
11609;DHT22;5860;52.018;8.536;2023-06-24T11:32:11;26.60;99.90
11609;DHT22;5860;52.018;8.536;2023-06-24T11:34:39;27.20;99.90
11609;DHT22;5860;52.018;8.536;2023-06-24T11:37:13;27.40;99.90
11609;DHT22;5860;52.018;8.536;2023-06-24T11:39:41;27.50;99.90
11609;DHT22;5860;52.018;8.536;2023-06-24T11:42:09;27.30;99.90
11609;DHT22;5860;52.018;8.536;2023-06-24T11:44:42;27.30;99.90
11609;DHT22;5860;52.018;8.536;2023-06-24T11:47:11;27.30;99.90
11609;DHT22;5860;52.018;8.536;2023-06-24T11:49:51;27.30;99.90
11609;DHT22;5860;52.018;8.536;2023-06-24T11:52:48;27.10;99.90
11609;DHT22;5860;52.018;8.536;2023-06-24T11:55:24;26.80;99.90
11609;DHT22;5860;52.018;8.536;2023-06-24T12:00:22;26.70;99.90
11609;DHT22;5860;52.018;8.536;2023-06-24T12:02:53;26.70;99.90
11609;DHT22;5860;52.018;8.536;2023-06-24T12:05:25;27.00;99.90
11609;DHT22;5860;52.018;8.536;2023-06-24T12:08:06;27.20;99.90
11609;DHT22;5860;52.018;8.536;2023-06-24T12:10:34;27.30;99.90
11609;DHT22;5860;52.018;8.536;2023-06-24T12:13:03;27.60;99.90
11609;DHT22;5860;52.018;8.536;2023-06-24T12:15:30;27.80;99.90
11609;DHT22;5860;52.018;8.536;2023-06-24T12:18:00;27.70;99.90
11609;DHT22;5860;52.018;8.536;2023-06-24T12:20:29;27.80;99.90
11609;DHT22;5860;52.018;8.536;2023-06-24T12:23:00;27.90;99.90
11609;DHT22;5860;52.018;8.536;2023-06-24T12:25:27;27.30;99.90
11609;DHT22;5860;52.018;8.536;2023-06-24T12:27:54;27.40;99.90
11609;DHT22;5860;52.018;8.536;2023-06-24T12:30:21;27.00;99.90
11609;DHT22;5860;52.018;8.536;2023-06-24T12:32:50;27.10;99.90
11609;DHT22;5860;52.018;8.536;2023-06-24T12:35:18;27.30;99.90
11609;DHT22;5860;52.018;8.536;2023-06-24T12:37:44;27.10;99.90
11609;DHT22;5860;52.018;8.536;2023-06-24T12:40:12;27.20;99.90
11609;DHT22;5860;52.018;8.536;2023-06-24T12:42:39;27.70;99.90
11609;DHT22;5860;52.018;8.536;2023-06-24T12:45:07;27.20;99.90
11609;DHT22;5860;52.018;8.536;2023-06-24T12:47:34;27.40;99.90
11609;DHT22;5860;52.018;8.536;2023-06-24T12:50:01;27.30;99.90
11609;DHT22;5860;52.018;8.536;2023-06-24T12:52:35;27.50;99.90
11609;DHT22;5860;52.018;8.536;2023-06-24T12:55:02;27.20;99.90
11609;DHT22;5860;52.018;8.536;2023-06-24T12:57:30;27.20;99.90
11609;DHT22;5860;52.018;8.536;2023-06-24T12:59:57;27.20;99.90
11609;DHT22;5860;52.018;8.536;2023-06-24T13:02:24;27.40;99.90
11609;DHT22;5860;52.018;8.536;2023-06-24T13:04:52;27.70;99.90
11609;DHT22;5860;52.018;8.536;2023-06-24T13:07:18;27.80;99.90
11609;DHT22;5860;52.018;8.536;2023-06-24T13:09:46;28.00;99.90
11609;DHT22;5860;52.018;8.536;2023-06-24T13:12:13;27.90;99.90
11609;DHT22;5860;52.018;8.536;2023-06-24T13:14:40;28.10;99.90
11609;DHT22;5860;52.018;8.536;2023-06-24T13:17:07;28.10;99.90
11609;DHT22;5860;52.018;8.536;2023-06-24T13:19:33;28.50;99.90
11609;DHT22;5860;52.018;8.536;2023-06-24T13:22:00;28.30;99.90
11609;DHT22;5860;52.018;8.536;2023-06-24T13:24:27;28.10;99.90
11609;DHT22;5860;52.018;8.536;2023-06-24T13:26:54;28.30;99.90
11609;DHT22;5860;52.018;8.536;2023-06-24T13:29:21;28.50;99.90
11609;DHT22;5860;52.018;8.536;2023-06-24T13:31:48;28.50;99.30
11609;DHT22;5860;52.018;8.536;2023-06-24T13:34:17;28.30;99.40
11609;DHT22;5860;52.018;8.536;2023-06-24T13:36:45;28.20;99.30
11609;DHT22;5860;52.018;8.536;2023-06-24T13:39:14;28.30;99.60
11609;DHT22;5860;52.018;8.536;2023-06-24T13:41:46;28.10;99.90
11609;DHT22;5860;52.018;8.536;2023-06-24T13:44:13;28.00;99.90
11609;DHT22;5860;52.018;8.536;2023-06-24T13:46:40;28.20;99.90
11609;DHT22;5860;52.018;8.536;2023-06-24T13:49:07;28.50;99.20
11609;DHT22;5860;52.018;8.536;2023-06-24T13:51:34;28.60;99.00
11609;DHT22;5860;52.018;8.536;2023-06-24T13:54:01;28.30;97.50
11609;DHT22;5860;52.018;8.536;2023-06-24T13:56:28;27.70;98.50
11609;DHT22;5860;52.018;8.536;2023-06-24T13:58:56;27.50;99.70
11609;DHT22;5860;52.018;8.536;2023-06-24T14:01:23;27.50;99.90
11609;DHT22;5860;52.018;8.536;2023-06-24T14:03:51;27.10;99.90
11609;DHT22;5860;52.018;8.536;2023-06-24T14:06:21;27.20;99.90
11609;DHT22;5860;52.018;8.536;2023-06-24T14:08:49;27.20;99.90
11609;DHT22;5860;52.018;8.536;2023-06-24T14:11:17;27.20;99.90
11609;DHT22;5860;52.018;8.536;2023-06-24T14:13:44;27.10;99.90
11609;DHT22;5860;52.018;8.536;2023-06-24T14:16:11;27.00;99.90
11609;DHT22;5860;52.018;8.536;2023-06-24T14:18:39;26.90;99.90
11609;DHT22;5860;52.018;8.536;2023-06-24T14:21:06;26.90;99.90
11609;DHT22;5860;52.018;8.536;2023-06-24T14:23:33;27.00;99.90
11609;DHT22;5860;52.018;8.536;2023-06-24T14:26:01;27.00;99.90
11609;DHT22;5860;52.018;8.536;2023-06-24T14:28:28;27.30;99.90
11609;DHT22;5860;52.018;8.536;2023-06-24T14:30:55;27.10;99.90
11609;DHT22;5860;52.018;8.536;2023-06-24T14:33:22;27.20;99.90
11609;DHT22;5860;52.018;8.536;2023-06-24T14:35:49;27.30;99.90
11609;DHT22;5860;52.018;8.536;2023-06-24T14:38:18;27.60;99.90
11609;DHT22;5860;52.018;8.536;2023-06-24T14:40:45;27.40;99.90
11609;DHT22;5860;52.018;8.536;2023-06-24T14:43:12;27.50;99.90
11609;DHT22;5860;52.018;8.536;2023-06-24T14:45:39;27.30;99.90
11609;DHT22;5860;52.018;8.536;2023-06-24T14:48:06;26.80;99.90
11609;DHT22;5860;52.018;8.536;2023-06-24T14:50:33;27.10;99.90
11609;DHT22;5860;52.018;8.536;2023-06-24T14:53:00;27.10;99.90
11609;DHT22;5860;52.018;8.536;2023-06-24T14:55:27;27.10;99.90
11609;DHT22;5860;52.018;8.536;2023-06-24T14:57:54;26.90;99.90
11609;DHT22;5860;52.018;8.536;2023-06-24T15:00:21;26.90;99.90
11609;DHT22;5860;52.018;8.536;2023-06-24T15:02:48;26.70;99.90
11609;DHT22;5860;52.018;8.536;2023-06-24T15:05:15;26.70;99.90
11609;DHT22;5860;52.018;8.536;2023-06-24T15:07:42;26.70;99.90
11609;DHT22;5860;52.018;8.536;2023-06-24T15:10:09;26.60;99.90
11609;DHT22;5860;52.018;8.536;2023-06-24T15:12:35;26.70;99.90
11609;DHT22;5860;52.018;8.536;2023-06-24T15:15:03;27.10;99.90
11609;DHT22;5860;52.018;8.536;2023-06-24T15:17:30;26.90;99.90
11609;DHT22;5860;52.018;8.536;2023-06-24T15:19:57;27.10;99.90
11609;DHT22;5860;52.018;8.536;2023-06-24T15:22:24;27.20;99.90
11609;DHT22;5860;52.018;8.536;2023-06-24T15:24:51;27.40;99.90
11609;DHT22;5860;52.018;8.536;2023-06-24T15:27:18;27.40;99.90
11609;DHT22;5860;52.018;8.536;2023-06-24T15:29:45;27.40;99.90
11609;DHT22;5860;52.018;8.536;2023-06-24T15:32:12;27.10;99.90
11609;DHT22;5860;52.018;8.536;2023-06-24T15:34:39;26.90;99.90
11609;DHT22;5860;52.018;8.536;2023-06-24T15:37:06;26.80;99.90
11609;DHT22;5860;52.018;8.536;2023-06-24T15:39:33;26.90;99.90
11609;DHT22;5860;52.018;8.536;2023-06-24T15:42:00;26.90;99.90
11609;DHT22;5860;52.018;8.536;2023-06-24T15:44:27;26.80;99.90
11609;DHT22;5860;52.018;8.536;2023-06-24T15:46:54;26.70;99.90
11609;DHT22;5860;52.018;8.536;2023-06-24T15:49:21;26.70;99.90
11609;DHT22;5860;52.018;8.536;2023-06-24T15:51:48;26.80;99.90
11609;DHT22;5860;52.018;8.536;2023-06-24T15:54:15;26.90;99.90
11609;DHT22;5860;52.018;8.536;2023-06-24T15:56:42;26.70;99.90
11609;DHT22;5860;52.018;8.536;2023-06-24T15:59:09;26.60;99.90
11609;DHT22;5860;52.018;8.536;2023-06-24T16:01:36;26.60;99.90
11609;DHT22;5860;52.018;8.536;2023-06-24T16:04:03;26.60;99.90
11609;DHT22;5860;52.018;8.536;2023-06-24T16:06:30;26.70;99.90
11609;DHT22;5860;52.018;8.536;2023-06-24T16:08:57;26.70;99.90
11609;DHT22;5860;52.018;8.536;2023-06-24T16:11:24;26.70;99.90
11609;DHT22;5860;52.018;8.536;2023-06-24T16:13:51;26.90;99.90
11609;DHT22;5860;52.018;8.536;2023-06-24T16:16:18;26.80;99.90
11609;DHT22;5860;52.018;8.536;2023-06-24T16:18:45;27.00;99.90
11609;DHT22;5860;52.018;8.536;2023-06-24T16:21:12;27.10;99.90